ニジネヴァルトフスク の空港の天気 - METARとTAF

Nizhnevartovsk ( USNN / NJC ) - ロシア ニジネヴァルトフスク
飛行場実況気象(Metar)
観測時間01/19 16:00 YEKT (01/19 11:00 UTC)
風向・風速南西 6m/s
視程10km以上
天気現象低い地吹雪
なし
気温-9℃
湿度85%
気圧1008hPa
METARUSNN 191100Z 23006MPS 9999 DRSN NSC M09/M11 Q1008 R21/420142 NOSIG RMK QFE751
過去の天気等 Google飛行場航空写真 Wunderground天気予報

過去48時間のMETAR

飛行場予報(TAF)
発表時間: 1/19 13:00 YEKT (1/19 08:00 UTC)
予報対象時間: 19日14時 YEKT ~ 20日14時 YEKT
風向・風速南西 6m/s 瞬間風速 11m/s
視程5000m
天気現象弱い雪 低い地吹雪
全天の8割程度の雲 雲底高度 300m
19日14時 YEKT ~ 19日17時 YEKT に一時的に
視程2000m
天気現象しゅう雪
全天の8割程度の雲 雲底高度 210m
全天の8割程度の積乱雲 雲底高度 460m
TAF USNN 190800Z 1909/2009 23006G11MPS 5000 -SN DRSN BKN010
TEMPO 1909/1912 2000 SHSN BKN007 BKN015CB